createdAt,value
2023-08-28T00:01:32.441Z,100228.50
2023-08-28T00:04:01.007Z,100231.44
2023-08-28T00:06:29.338Z,100229.38
2023-08-28T00:08:57.713Z,100241.56
2023-08-28T00:11:26.137Z,100242.28
2023-08-28T00:13:54.527Z,100236.50
2023-08-28T00:16:23.045Z,100239.88
2023-08-28T00:18:51.378Z,100245.22
2023-08-28T00:21:20.001Z,100240.38
2023-08-28T00:23:48.161Z,100245.03
2023-08-28T00:26:16.597Z,100242.81
2023-08-28T00:28:44.999Z,100250.59
2023-08-28T00:31:13.505Z,100253.28
2023-08-28T00:33:41.820Z,100263.13
2023-08-28T00:36:10.261Z,100269.03
2023-08-28T00:38:38.710Z,100261.41
2023-08-28T00:41:07.094Z,100262.78
2023-08-28T00:43:35.562Z,100281.00
2023-08-28T00:46:05.927Z,100271.69
2023-08-28T00:48:37.294Z,100278.28
2023-08-28T00:51:08.378Z,100276.53
2023-08-28T00:53:38.761Z,100284.31
2023-08-28T00:56:09.218Z,100277.84
2023-08-28T00:58:41.172Z,100282.81
2023-08-28T01:01:11.675Z,100288.69
2023-08-28T01:03:41.830Z,100290.91
2023-08-28T01:06:51.603Z,100286.25
2023-08-28T01:09:51.307Z,100300.50
2023-08-28T01:12:28.119Z,100291.09
2023-08-28T01:15:21.866Z,100296.88
2023-08-28T01:18:05.724Z,100296.28
2023-08-28T01:20:38.182Z,100294.53
2023-08-28T01:23:28.968Z,100299.16
2023-08-28T01:26:00.778Z,100293.47
2023-08-28T01:28:31.473Z,100291.72
2023-08-28T01:31:06.124Z,100300.28
2023-08-28T01:33:37.691Z,100302.44
2023-08-28T01:36:31.865Z,100300.22
2023-08-28T01:39:16.629Z,100291.75
2023-08-28T01:41:49.694Z,100299.50
2023-08-28T01:44:23.915Z,100291.25
2023-08-28T01:46:54.725Z,100302.53
2023-08-28T01:49:34.514Z,100298.34
2023-08-28T01:52:05.245Z,100297.38
2023-08-28T01:54:35.480Z,100301.66
2023-08-28T01:57:06.313Z,100292.38
2023-08-28T01:59:36.842Z,100289.00
2023-08-28T02:02:07.017Z,100285.94
2023-08-28T02:04:37.175Z,100286.47
2023-08-28T02:07:08.688Z,100290.28
2023-08-28T02:09:38.830Z,100281.28
2023-08-28T02:12:09.218Z,100284.59
2023-08-28T02:14:39.376Z,100280.88
2023-08-28T02:17:09.571Z,100286.63
2023-08-28T02:19:39.867Z,100280.44
2023-08-28T02:22:08.194Z,100287.47
2023-08-28T02:24:36.608Z,100279.34
2023-08-28T02:27:05.492Z,100289.16
2023-08-28T02:29:33.553Z,100282.63
2023-08-28T02:32:01.932Z,100288.06
2023-08-28T02:34:30.398Z,100291.16
2023-08-28T02:36:58.826Z,100293.78
2023-08-28T02:39:27.221Z,100288.91
2023-08-28T02:41:55.658Z,100305.06
2023-08-28T02:44:24.151Z,100300.50
2023-08-28T02:46:52.792Z,100304.28
2023-08-28T02:49:21.019Z,100306.56
2023-08-28T02:51:50.136Z,100315.56
2023-08-28T02:54:17.831Z,100315.88
2023-08-28T02:56:46.279Z,100315.88
2023-08-28T02:59:14.764Z,100326.47
2023-08-28T03:01:43.182Z,100325.03
2023-08-28T03:04:11.621Z,100337.44
2023-08-28T03:06:41.064Z,100336.66
2023-08-28T03:09:09.735Z,100335.69
2023-08-28T03:11:37.262Z,100337.16
2023-08-28T03:14:05.766Z,100342.88
2023-08-28T03:16:34.192Z,100340.09
2023-08-28T03:19:02.600Z,100344.34
2023-08-28T03:21:30.707Z,100336.84
2023-08-28T03:23:59.067Z,100336.22
2023-08-28T03:26:29.796Z,100344.84
2023-08-28T03:28:58.965Z,100336.06
2023-08-28T03:31:30.899Z,100341.59
2023-08-28T03:34:01.568Z,100342.72
2023-08-28T03:36:31.909Z,100349.41
2023-08-28T03:39:02.082Z,100355.25
2023-08-28T03:41:32.231Z,100357.72
2023-08-28T03:44:00.677Z,100371.56
2023-08-28T03:46:29.089Z,100372.69
2023-08-28T03:48:57.415Z,100377.75
2023-08-28T03:51:25.836Z,100377.75
2023-08-28T03:53:54.273Z,100380.69
2023-08-28T03:56:23.971Z,100380.03
2023-08-28T03:58:51.097Z,100376.94
2023-08-28T04:01:19.632Z,100377.41
2023-08-28T04:03:48.014Z,100381.84
2023-08-28T04:06:16.385Z,100373.84
2023-08-28T04:08:44.781Z,100374.00
2023-08-28T04:11:13.221Z,100374.34
2023-08-28T04:13:42.897Z,100371.56
2023-08-28T04:16:13.099Z,100375.13
2023-08-28T04:18:41.466Z,100368.47
2023-08-28T04:21:09.916Z,100357.53
2023-08-28T04:23:38.245Z,100349.56
2023-08-28T04:26:06.693Z,100340.91
2023-08-28T04:28:35.182Z,100343.03
2023-08-28T04:31:03.613Z,100335.72
2023-08-28T04:33:32.191Z,100332.28
2023-08-28T04:36:02.715Z,100345.00
2023-08-28T04:38:33.258Z,100332.59
2023-08-28T04:41:04.627Z,100327.88
2023-08-28T04:43:34.824Z,100334.38
2023-08-28T04:46:06.774Z,100330.63
2023-08-28T04:48:36.906Z,100333.69
2023-08-28T04:51:07.520Z,100333.22
2023-08-28T04:53:37.610Z,100335.00
2023-08-28T04:56:07.777Z,100322.91
2023-08-28T04:58:38.047Z,100335.44
2023-08-28T05:01:08.242Z,100340.00
2023-08-28T05:03:39.589Z,100336.91
2023-08-28T05:06:09.781Z,100345.34
2023-08-28T05:08:39.950Z,100348.94
2023-08-28T05:11:13.449Z,100346.66
2023-08-28T05:13:43.716Z,100359.69
2023-08-28T05:16:13.983Z,100362.47
2023-08-28T05:18:44.307Z,100362.63
2023-08-28T05:21:14.505Z,100361.78
2023-08-28T05:23:44.626Z,100356.53
2023-08-28T05:26:13.138Z,100357.97
2023-08-28T05:28:41.522Z,100353.50
2023-08-28T05:31:09.994Z,100347.72
2023-08-28T05:33:38.440Z,100350.59
2023-08-28T05:36:06.888Z,100344.06
2023-08-28T05:38:35.400Z,100341.81
2023-08-28T05:41:04.728Z,100342.03
2023-08-28T05:43:31.972Z,100344.28
2023-08-28T05:46:00.349Z,100354.28
2023-08-28T05:48:28.857Z,100361.41
2023-08-28T05:50:57.198Z,100363.50
2023-08-28T05:53:25.613Z,100366.75
2023-08-28T05:55:54.045Z,100372.44
2023-08-28T05:58:22.442Z,100381.88
2023-08-28T06:00:50.884Z,100373.78
2023-08-28T06:03:19.974Z,100381.47
2023-08-28T06:05:47.826Z,100378.13
2023-08-28T06:08:18.118Z,100378.34
2023-08-28T06:10:47.527Z,100380.94
2023-08-28T06:13:16.519Z,100381.75
2023-08-28T06:15:44.280Z,100390.13
2023-08-28T06:18:12.856Z,100382.38
2023-08-28T06:20:41.122Z,100387.44
2023-08-28T06:23:09.567Z,100373.63
2023-08-28T06:25:37.937Z,100373.50
2023-08-28T06:28:06.801Z,100385.25
2023-08-28T06:30:34.773Z,100379.72
2023-08-28T06:33:03.964Z,100368.19
2023-08-28T06:35:33.565Z,100375.75
2023-08-28T06:38:03.870Z,100362.19
2023-08-28T06:40:34.123Z,100362.88
2023-08-28T06:43:05.407Z,100371.69
2023-08-28T06:45:35.818Z,100372.59
2023-08-28T06:48:06.511Z,100376.91
2023-08-28T06:50:36.713Z,100381.09
2023-08-28T06:53:06.894Z,100379.88
2023-08-28T06:55:38.009Z,100382.66
2023-08-28T06:58:08.219Z,100392.66
2023-08-28T07:00:39.081Z,100390.25
2023-08-28T07:03:10.630Z,100400.25
2023-08-28T07:05:41.727Z,100398.31
2023-08-28T07:08:11.909Z,100389.09
2023-08-28T07:10:40.355Z,100398.00
2023-08-28T07:13:08.711Z,100400.03
2023-08-28T07:15:55.393Z,100405.59
2023-08-28T07:18:25.724Z,100408.19
2023-08-28T07:20:56.300Z,100398.31
2023-08-28T07:23:26.885Z,100397.84
2023-08-28T07:25:58.174Z,100401.59
2023-08-28T07:28:28.789Z,100386.53
2023-08-28T07:31:01.410Z,100405.47
2023-08-28T07:33:31.659Z,100401.78
2023-08-28T07:36:01.793Z,100404.78
2023-08-28T07:38:31.976Z,100411.59
2023-08-28T07:41:02.116Z,100397.44
2023-08-28T07:43:32.273Z,100405.19
2023-08-28T07:46:02.444Z,100411.28
2023-08-28T07:48:32.675Z,100394.66
2023-08-28T07:51:03.435Z,100401.13
2023-08-28T07:53:31.726Z,100404.19
2023-08-28T07:56:00.876Z,100395.44
2023-08-28T07:58:28.126Z,100398.94
2023-08-28T08:01:01.621Z,100399.31
2023-08-28T08:03:32.906Z,100397.19
2023-08-28T08:06:03.072Z,100393.34
2023-08-28T08:08:33.188Z,100403.91
2023-08-28T08:11:01.690Z,100404.81
2023-08-28T08:13:30.516Z,100390.88
2023-08-28T08:15:58.533Z,100397.00
2023-08-28T08:18:26.842Z,100391.63
2023-08-28T08:20:55.264Z,100384.94
2023-08-28T08:23:24.665Z,100384.94
2023-08-28T08:25:57.937Z,100375.41
2023-08-28T08:28:31.228Z,100366.25
2023-08-28T08:31:01.619Z,100373.41
2023-08-28T08:33:31.876Z,100375.88
2023-08-28T08:36:02.070Z,100382.91
2023-08-28T08:38:32.255Z,100378.81
2023-08-28T08:41:02.699Z,100370.78
2023-08-28T08:43:33.323Z,100368.97
2023-08-28T08:46:09.781Z,100373.84
2023-08-28T08:48:43.726Z,100370.50
2023-08-28T08:51:21.540Z,100370.34
2023-08-28T08:54:20.419Z,100362.88
2023-08-28T08:57:04.131Z,100360.97
2023-08-28T08:59:34.724Z,100360.66
2023-08-28T09:02:05.916Z,100352.63
2023-08-28T09:04:36.811Z,100345.22
2023-08-28T09:07:08.455Z,100356.50
2023-08-28T09:09:40.476Z,100365.81
2023-08-28T09:12:10.921Z,100359.84
2023-08-28T09:14:42.048Z,100369.44
2023-08-28T09:17:12.219Z,100370.63
2023-08-28T09:19:46.291Z,100376.28
2023-08-28T09:22:16.496Z,100384.25
2023-08-28T09:24:55.470Z,100387.38
2023-08-28T09:27:25.676Z,100390.75
2023-08-28T09:29:55.920Z,100392.50
2023-08-28T09:32:29.935Z,100395.84
2023-08-28T09:35:00.167Z,100394.22
2023-08-28T09:37:30.374Z,100397.13
2023-08-28T09:40:00.241Z,100398.06
2023-08-28T09:42:31.092Z,100406.75
2023-08-28T09:44:58.852Z,100406.66
2023-08-28T09:47:29.669Z,100406.22
2023-08-28T09:50:00.073Z,100412.13
2023-08-28T09:52:30.382Z,100411.22
2023-08-28T09:55:07.519Z,100412.38
2023-08-28T09:57:37.894Z,100412.44
2023-08-28T10:00:09.557Z,100421.47
2023-08-28T10:02:41.260Z,100421.97
2023-08-28T10:05:15.668Z,100424.19
2023-08-28T10:07:53.748Z,100418.75
2023-08-28T10:10:26.521Z,100417.00
2023-08-28T10:12:58.204Z,100415.84
2023-08-28T10:15:31.289Z,100414.69
2023-08-28T10:18:12.558Z,100419.31
2023-08-28T10:20:46.164Z,100407.72
2023-08-28T10:23:21.527Z,100409.06
2023-08-28T10:25:56.519Z,100410.72
2023-08-28T10:28:29.384Z,100408.38
2023-08-28T10:31:00.314Z,100412.97
2023-08-28T10:33:35.875Z,100403.75
2023-08-28T10:36:11.736Z,100395.72
2023-08-28T10:38:57.193Z,100400.47
2023-08-28T10:41:33.293Z,100396.72
2023-08-28T10:44:05.635Z,100395.34
2023-08-28T10:46:36.521Z,100394.84
2023-08-28T10:49:09.048Z,100393.47
2023-08-28T10:51:38.325Z,100392.50
2023-08-28T10:54:10.563Z,100386.56
2023-08-28T10:56:40.968Z,100379.66
2023-08-28T10:59:28.136Z,100366.97
2023-08-28T11:02:03.345Z,100364.75
2023-08-28T11:04:37.601Z,100362.91
2023-08-28T11:07:43.061Z,100365.28
2023-08-28T11:10:22.455Z,100360.63
2023-08-28T11:13:02.293Z,100368.34
2023-08-28T11:15:41.884Z,100378.75
2023-08-28T11:18:31.938Z,100391.75
2023-08-28T11:21:07.446Z,100386.56
2023-08-28T11:23:43.817Z,100379.38
2023-08-28T11:26:17.444Z,100383.97
2023-08-28T11:28:51.227Z,100387.09
2023-08-28T11:31:21.556Z,100388.56
2023-08-28T11:33:51.905Z,100386.97
2023-08-28T11:36:23.163Z,100380.94
2023-08-28T11:38:56.760Z,100383.13
2023-08-28T11:41:27.145Z,100386.78
2023-08-28T11:43:57.270Z,100389.63
2023-08-28T11:46:28.152Z,100393.13
2023-08-28T11:48:58.396Z,100393.06
2023-08-28T11:51:28.624Z,100397.50
2023-08-28T11:54:00.866Z,100396.19
2023-08-28T11:56:35.618Z,100392.31
2023-08-28T11:59:06.645Z,100402.50
2023-08-28T12:01:38.334Z,100397.38
2023-08-28T12:04:09.121Z,100401.88
2023-08-28T12:06:42.431Z,100407.06
2023-08-28T12:09:14.325Z,100403.91
2023-08-28T12:11:45.468Z,100402.50
2023-08-28T12:14:18.949Z,100402.88
2023-08-28T12:16:50.272Z,100398.09
2023-08-28T12:19:23.598Z,100403.56
2023-08-28T12:22:06.445Z,100403.69
2023-08-28T12:24:47.101Z,100399.97
2023-08-28T12:27:28.367Z,100398.44
2023-08-28T12:29:59.050Z,100389.69
2023-08-28T12:32:29.342Z,100392.16
2023-08-28T12:35:13.316Z,100382.66
2023-08-28T12:37:43.454Z,100383.47
2023-08-28T12:40:13.816Z,100386.44
2023-08-28T12:42:42.432Z,100386.09
2023-08-28T12:45:12.287Z,100380.53
2023-08-28T12:47:43.037Z,100378.19
2023-08-28T12:50:11.604Z,100367.34
2023-08-28T12:52:42.479Z,100371.31
2023-08-28T12:55:12.650Z,100364.09
2023-08-28T12:57:42.840Z,100369.78
2023-08-28T13:00:13.736Z,100354.59
2023-08-28T13:02:42.870Z,100352.41
2023-08-28T13:05:12.955Z,100345.09
2023-08-28T13:07:43.161Z,100340.69
2023-08-28T13:10:13.472Z,100342.16
2023-08-28T13:12:43.672Z,100332.50
2023-08-28T13:15:13.885Z,100330.72
2023-08-28T13:17:45.352Z,100335.50
2023-08-28T13:20:16.367Z,100324.78
2023-08-28T13:22:47.665Z,100324.47
2023-08-28T13:25:18.111Z,100321.38
2023-08-28T13:27:48.398Z,100319.25
2023-08-28T13:30:18.630Z,100315.28
2023-08-28T13:32:49.983Z,100319.78
2023-08-28T13:35:20.254Z,100317.41
2023-08-28T13:37:50.408Z,100312.63
2023-08-28T13:40:20.994Z,100316.19
2023-08-28T13:42:51.203Z,100312.16
2023-08-28T13:45:21.340Z,100311.31
2023-08-28T13:47:51.519Z,100314.41
2023-08-28T13:50:21.756Z,100309.97
2023-08-28T13:52:52.177Z,100310.00
2023-08-28T13:55:23.042Z,100318.91
2023-08-28T13:57:50.928Z,100314.94
2023-08-28T14:00:20.086Z,100320.19
2023-08-28T14:02:47.622Z,100333.44
2023-08-28T14:05:16.008Z,100339.06
2023-08-28T14:07:44.996Z,100336.28
2023-08-28T14:10:13.159Z,100335.94
2023-08-28T14:12:41.303Z,100338.34
2023-08-28T14:15:10.018Z,100341.56
2023-08-28T14:17:38.196Z,100352.47
2023-08-28T14:20:11.307Z,100344.44
2023-08-28T14:22:41.464Z,100349.25
2023-08-28T14:25:14.462Z,100345.16
2023-08-28T14:27:54.892Z,100343.16
2023-08-28T14:30:27.436Z,100341.19
2023-08-28T14:32:57.975Z,100354.38
2023-08-28T14:35:28.199Z,100361.91
2023-08-28T14:37:56.693Z,100348.72
2023-08-28T14:40:40.323Z,100352.75
2023-08-28T14:43:14.871Z,100347.50
2023-08-28T14:45:45.562Z,100347.91
2023-08-28T14:48:15.790Z,100348.69
2023-08-28T14:50:45.950Z,100352.66
2023-08-28T14:53:16.200Z,100355.09
2023-08-28T14:55:53.215Z,100358.31
2023-08-28T14:58:24.133Z,100364.72
2023-08-28T15:00:56.250Z,100362.72
2023-08-28T15:03:26.621Z,100352.69
2023-08-28T15:05:56.899Z,100340.25
2023-08-28T15:08:27.140Z,100342.72
2023-08-28T15:10:57.251Z,100334.25
2023-08-28T15:13:25.715Z,100338.75
2023-08-28T15:15:55.560Z,100343.16
2023-08-28T15:18:25.611Z,100347.19
2023-08-28T15:20:54.024Z,100351.97
2023-08-28T15:23:22.903Z,100359.19
2023-08-28T15:25:50.941Z,100369.91
2023-08-28T15:28:19.423Z,100363.38
2023-08-28T15:30:52.680Z,100354.84
2023-08-28T15:33:22.614Z,100349.56
2023-08-28T15:35:52.451Z,100338.31
2023-08-28T15:38:22.428Z,100339.53
2023-08-28T15:40:50.908Z,100336.31
2023-08-28T15:43:19.255Z,100343.88
2023-08-28T15:45:53.403Z,100345.75
2023-08-28T15:48:23.285Z,100343.63
2023-08-28T15:50:53.865Z,100342.34
2023-08-28T15:53:24.043Z,100345.09
2023-08-28T15:55:55.955Z,100344.66
2023-08-28T15:58:27.120Z,100335.34
2023-08-28T16:01:01.537Z,100331.28
2023-08-28T16:03:31.875Z,100332.44
2023-08-28T16:06:05.946Z,100330.00
2023-08-28T16:08:36.680Z,100324.00
2023-08-28T16:11:06.689Z,100314.44
2023-08-28T16:13:36.391Z,100330.91
2023-08-28T16:16:06.358Z,100341.22
2023-08-28T16:18:36.259Z,100328.72
2023-08-28T16:21:07.495Z,100326.28
2023-08-28T16:23:38.040Z,100331.16
2023-08-28T16:26:07.246Z,100341.56
2023-08-28T16:28:37.172Z,100347.50
2023-08-28T16:31:11.531Z,100347.00
2023-08-28T16:33:41.528Z,100356.56
2023-08-28T16:36:09.907Z,100356.09
2023-08-28T16:41:14.049Z,100353.66
2023-08-28T16:43:44.399Z,100356.88
2023-08-28T16:46:14.912Z,100356.47
2023-08-28T16:48:45.092Z,100347.59
2023-08-28T16:51:15.227Z,100351.53
2023-08-28T16:53:45.544Z,100350.69
2023-08-28T16:56:15.815Z,100357.47
2023-08-28T16:58:45.971Z,100364.28
2023-08-28T17:01:16.312Z,100366.19
2023-08-28T17:03:46.705Z,100366.13
2023-08-28T17:06:15.223Z,100359.28
2023-08-28T17:08:43.323Z,100352.88
2023-08-28T17:11:11.799Z,100344.84
2023-08-28T17:13:40.673Z,100355.19
2023-08-28T17:16:08.425Z,100356.28
2023-08-28T17:18:38.618Z,100335.31
2023-08-28T17:21:08.751Z,100334.44
2023-08-28T17:23:38.859Z,100340.00
2023-08-28T17:26:09.109Z,100343.03
2023-08-28T17:28:39.390Z,100348.38
2023-08-28T17:31:11.351Z,100353.09
2023-08-28T17:33:41.521Z,100349.34
2023-08-28T17:36:11.777Z,100348.84
2023-08-28T17:38:41.926Z,100353.13
2023-08-28T17:45:37.230Z,100356.19
2023-08-28T17:48:08.666Z,100354.56
2023-08-28T17:51:25.280Z,100358.53
2023-08-28T17:53:55.235Z,100350.44
2023-08-28T17:56:25.299Z,100347.91
2023-08-28T17:58:57.631Z,100351.03
2023-08-28T18:01:25.451Z,100362.16
2023-08-28T18:03:55.435Z,100350.91
2023-08-28T18:06:25.442Z,100357.59
2023-08-28T18:08:55.570Z,100354.75
2023-08-28T18:11:25.314Z,100342.28
2023-08-28T18:13:55.575Z,100339.81
2023-08-28T18:16:25.618Z,100337.31
2023-08-28T18:18:56.961Z,100344.81
2023-08-28T18:21:25.366Z,100345.94
2023-08-28T18:23:53.812Z,100352.63
2023-08-28T18:26:22.524Z,100357.72
2023-08-28T18:28:52.055Z,100358.00
2023-08-28T18:31:22.123Z,100362.66
2023-08-28T18:33:53.677Z,100366.91
2023-08-28T18:36:22.033Z,100373.59
2023-08-28T18:38:51.937Z,100375.50
2023-08-28T18:41:23.090Z,100371.88
2023-08-28T18:43:53.128Z,100377.47
2023-08-28T18:46:23.060Z,100379.38
2023-08-28T18:48:52.875Z,100374.44
2023-08-28T18:51:25.848Z,100368.59
2023-08-28T18:53:55.965Z,100365.72
2023-08-28T18:56:26.237Z,100368.09
2023-08-28T18:58:56.471Z,100383.59
2023-08-28T19:01:26.601Z,100367.16
2023-08-28T19:03:56.528Z,100361.94
2023-08-28T19:06:26.895Z,100366.34
2023-08-28T19:08:57.170Z,100369.53
2023-08-28T19:11:27.141Z,100372.75
2023-08-28T19:13:57.002Z,100367.53
2023-08-28T19:16:26.917Z,100373.03
2023-08-28T19:18:56.730Z,100373.22
2023-08-28T19:21:26.826Z,100369.88
2023-08-28T19:23:57.432Z,100371.78
2023-08-28T19:26:25.589Z,100370.47
2023-08-28T19:28:53.889Z,100373.88
2023-08-28T19:31:24.101Z,100381.00
2023-08-28T19:33:53.608Z,100386.13
2023-08-28T19:36:22.374Z,100383.69
2023-08-28T19:38:50.930Z,100380.47
2023-08-28T19:41:21.147Z,100380.00
2023-08-28T19:43:51.344Z,100375.22
2023-08-28T19:46:21.557Z,100369.66
2023-08-28T19:48:51.763Z,100365.22
2023-08-28T19:51:23.803Z,100361.97
2023-08-28T19:53:54.954Z,100360.81
2023-08-28T19:56:25.591Z,100369.09
2023-08-28T19:58:55.790Z,100361.06
2023-08-28T20:01:26.690Z,100355.03
2023-08-28T20:03:56.940Z,100342.28
2023-08-28T20:06:27.887Z,100347.03
2023-08-28T20:08:58.079Z,100345.75
2023-08-28T20:11:28.319Z,100337.38
2023-08-28T20:13:58.627Z,100343.34
2023-08-28T20:16:28.783Z,100339.75
2023-08-28T20:18:58.970Z,100334.97
2023-08-28T20:21:30.084Z,100341.25
2023-08-28T20:24:00.278Z,100338.41
2023-08-28T20:26:28.684Z,100341.78
2023-08-28T20:28:57.091Z,100339.63
2023-08-28T20:31:25.647Z,100327.22
2023-08-28T20:33:55.137Z,100326.41
2023-08-28T20:36:26.494Z,100320.03
2023-08-28T20:38:56.771Z,100321.63
2023-08-28T20:41:27.000Z,100328.84
2023-08-28T20:43:57.160Z,100324.44
2023-08-28T20:46:27.353Z,100325.16
2023-08-28T20:48:59.950Z,100313.53
2023-08-28T20:51:30.439Z,100314.34
2023-08-28T20:54:01.386Z,100318.41
2023-08-28T20:56:31.657Z,100320.03
2023-08-28T20:59:01.895Z,100327.84
2023-08-28T21:01:32.123Z,100336.56
2023-08-28T21:04:03.421Z,100328.13
2023-08-28T21:06:33.640Z,100346.81
2023-08-28T21:09:05.112Z,100345.66
2023-08-28T21:11:36.569Z,100343.34
2023-08-28T21:14:06.869Z,100337.94
2023-08-28T21:16:37.032Z,100336.84
2023-08-28T21:19:07.502Z,100331.78
2023-08-28T21:21:37.767Z,100334.00
2023-08-28T21:24:08.546Z,100322.78
2023-08-28T21:26:36.433Z,100322.78
2023-08-28T21:29:05.938Z,100320.78
2023-08-28T21:31:33.194Z,100313.22
2023-08-28T21:34:01.684Z,100319.16
2023-08-28T21:36:30.439Z,100315.91
2023-08-28T21:38:58.588Z,100316.38
2023-08-28T21:41:26.874Z,100311.97
2023-08-28T21:43:55.256Z,100312.78
2023-08-28T21:46:25.511Z,100310.91
2023-08-28T21:48:55.753Z,100311.25
2023-08-28T21:51:25.901Z,100303.59
2023-08-28T21:53:56.107Z,100311.63
2023-08-28T21:56:26.289Z,100310.00
2023-08-28T21:58:56.444Z,100301.28
2023-08-28T22:01:26.663Z,100290.81
2023-08-28T22:03:57.031Z,100284.44
2023-08-28T22:06:25.912Z,100279.66
2023-08-28T22:08:54.220Z,100278.50
2023-08-28T22:11:22.365Z,100275.72
2023-08-28T22:13:51.578Z,100288.84
2023-08-28T22:16:19.258Z,100301.50
2023-08-28T22:18:47.601Z,100299.91
2023-08-28T22:21:17.101Z,100303.84
2023-08-28T22:23:44.987Z,100300.25
2023-08-28T22:26:12.972Z,100285.97
2023-08-28T22:28:41.389Z,100292.00
2023-08-28T22:31:09.781Z,100291.66
2023-08-28T22:33:38.264Z,100290.47
2023-08-28T22:36:07.048Z,100296.84
2023-08-28T22:38:35.076Z,100292.56
2023-08-28T22:41:05.856Z,100307.53
2023-08-28T22:43:34.892Z,100310.72
2023-08-28T22:46:03.369Z,100317.09
2023-08-28T22:48:31.803Z,100317.09
2023-08-28T22:51:01.495Z,100322.66
2023-08-28T22:53:31.628Z,100321.50
2023-08-28T22:56:01.859Z,100319.16
2023-08-28T22:58:32.023Z,100324.75
2023-08-28T23:01:02.193Z,100317.44
2023-08-28T23:03:32.428Z,100313.06
2023-08-28T23:06:02.619Z,100296.06
2023-08-28T23:08:33.090Z,100294.34
2023-08-28T23:11:03.329Z,100298.31
2023-08-28T23:13:33.637Z,100294.25
2023-08-28T23:16:04.784Z,100285.88
2023-08-28T23:18:35.482Z,100281.94
2023-08-28T23:21:05.716Z,100290.66
2023-08-28T23:23:35.862Z,100294.16
2023-08-28T23:26:06.238Z,100300.44
2023-08-28T23:28:36.411Z,100294.53
2023-08-28T23:31:08.048Z,100287.78
2023-08-28T23:33:38.869Z,100277.44
2023-08-28T23:36:09.767Z,100289.28
2023-08-28T23:38:37.657Z,100291.72
2023-08-28T23:41:07.389Z,100284.19
2023-08-28T23:43:34.841Z,100271.50
2023-08-28T23:46:02.043Z,100255.66
2023-08-28T23:48:30.540Z,100250.03
2023-08-28T23:50:58.915Z,100253.06
2023-08-28T23:53:27.261Z,100252.59
2023-08-28T23:55:55.828Z,100242.63
2023-08-28T23:58:24.147Z,100222.75
